Latest Coastal Weather Observations for Moruya Airport

IDN60701

Issued at 2:11 am EDT Thursday 30 March 2017 (issued every 10 minutes, with the page automatically refreshed every 10 minutes)

About coastal observations | Map of coastal stations | Coastal observations for NSW | Marine services | Other Formats
Station Details ID: 069148 Name: MORUYA AIRPORT AWS Lat: -35.90 Lon: 150.14 Height: 4.0 m
Data from the previous 72 hours. | See also: Recent months at Moruya Airport
Date/Time
EDT
Temp
°C
Wind Pressure Rain since
9am
mm
Weather Cloud Vis
km
Sea
Height
m
Swell
Dir  Spd
kts
Gust
kts
hPa Trend Height
m
Period
s
Dir
30/02:08am 19.1 WNW 3 5 1005.5 - 0.0 - Partly cloudy 8 - - - -
30/02:00am 18.9 WNW 3 6 1005.7 - 0.0 - Partly cloudy 6 - - - -
30/01:56am 18.5 WNW 3 5 1005.7 - 0.0 - Partly cloudy 5 - - - -
30/01:30am 17.4 WSW 4 5 1005.3 - 0.0 - - 6 - - - -
30/01:28am 17.3 W 4 5 1005.3 - 0.0 - - 6 - - - -
30/01:18am 17.4 W 5 6 1005.3 - 0.0 - - 5 - - - -
30/01:00am 16.4 W 2 4 1005.6 - 0.0 - - 6 - - - -
30/12:58am 16.4 W 3 4 1005.7 - 0.0 - - 6 - - - -
30/12:30am 16.6 CALM 0 0 1005.9 - 0.0 - - 5 - - - -
30/12:29am 16.6 CALM 0 0 1005.9 - 0.0 - - 5 - - - -
30/12:00am 16.4 W 1 3 1005.9 - 0.0 - - 7 - - - -
 
Date/Time
EDT
Temp
°C
Wind Pressure Rain since
9am
mm
Weather Cloud Vis
km
Sea
Height
m
Swell
Dir  Spd
kts
Gust
kts
hPa Trend Height
m
Period
s
Dir
29/11:30pm 16.2 WSW 1 5 1006.0 - 0.0 - - 7 - - - -
29/11:00pm 16.5 NW 1 4 1005.9 - 0.0 - - 10 - - - -
29/10:30pm 16.9 S 2 5 1006.0 - 0.0 - - 10 - - - -
29/10:00pm 17.8 S 3 5 1005.9 - 0.0 - - 10 - - - -
29/09:30pm 18.0 CALM 0 3 1005.7 - 0.0 - - 10 - - - -
29/09:00pm 21.3 N 5 7 1005.4 - 0.0 - - 10 - - - -
29/08:30pm 22.8 N 6 8 1005.2 - 0.0 - - 10 - - - -
29/08:00pm 25.2 N 8 10 1004.9 - 0.0 - - 10 - - - -
29/07:30pm 25.6 N 9 11 1004.5 - 0.0 - - 10 - - - -
29/07:00pm 26.6 N 9 10 1004.2 - 0.0 - - 10 - - - -
29/06:30pm 26.5 N 8 13 1003.9 - 0.0 - - 10 - - - -
29/06:00pm 25.1 NNE 10 14 1003.7 - 0.0 - - 10 - - - -
29/05:30pm 26.1 NNE 10 12 1003.7 - 0.0 - - 10 - - - -
29/05:00pm 25.4 NNE 9 13 1003.9 - 0.0 - - 10 - - - -
29/04:30pm 24.4 NNE 13 18 1004.3 - 0.0 - - 10 - - - -
29/04:00pm 25.6 NNE 14 18 1004.5 - 0.0 - - 10 - - - -
29/03:30pm 24.2 NE 15 19 1004.9 - 0.0 - - 10 - - - -
29/03:00pm 25.8 NE 12 17 1005.3 - 0.0 - - 10 - - - -
29/02:30pm 25.6 NE 11 15 1005.8 - 0.0 - - 10 - - - -
29/02:00pm 25.2 ENE 7 10 1006.5 - 0.0 - - 10 - - - -
29/01:30pm 25.2 NE 10 13 1007.1 - 0.0 - - 10 - - - -
29/01:00pm 24.7 ENE 9 11 1007.6 - 0.0 - - 10 - - - -
29/12:30pm 24.5 E 7 9 1008.2 - 0.0 - - 10 - - - -
29/12:00pm 25.5 N 5 8 1008.5 - 0.0 - - 10 - - - -
29/11:30am 24.9 N 7 9 1009.0 - 0.0 - - 10 - - - -
29/11:00am 23.6 NE 5 9 1009.6 - 0.0 - - 10 - - - -
29/10:30am 22.5 NNW 4 6 1009.9 - 0.0 - - 10 - - - -
29/10:00am 20.3 SE 2 4 1010.4 - 0.0 - - 10 - - - -
29/09:30am 19.3 CALM 0 0 1010.6 - 0.0 - - 10 - - - -
29/09:00am 17.9 CALM 0 0 1010.6 - 0.2 - - 10 - - - -
29/08:30am 16.1 CALM 0 0 1010.7 - 0.2 - - 10 - - - -
29/08:21am 16.2 CALM 0 0 1010.8 - 0.2 - - 7 - - - -
29/08:00am 14.7 CALM 0 0 1010.7 - 0.2 - - 5 - - - -
29/07:30am 13.1 WNW 1 4 1010.6 - 0.2 - - 0.6 - - - -
29/07:00am 13.5 CALM 0 0 1010.5 - 0.2 - - 1 - - - -
29/06:30am 13.3 NW 3 4 1010.5 - 0.2 - - 6 - - - -
29/06:00am 13.8 CALM 0 0 1010.6 - 0.2 - - 2 - - - -
29/05:34am 14.2 CALM 0 0 1010.7 - 0.2 - - 4 - - - -
29/05:32am 14.2 CALM 0 0 1010.7 - 0.2 - - 7 - - - -
29/05:30am 14.3 CALM 0 0 1010.6 - 0.2 - - 7 - - - -
29/05:00am 14.5 CALM 0 0 1010.6 - 0.2 - - 2 - - - -
29/04:30am 14.6 CALM 0 0 1010.7 - 0.2 - Partly cloudy 2 - - - -
29/04:19am 14.7 CALM 0 0 1010.8 - 0.2 - Partly cloudy 5 - - - -
29/04:00am 15.0 CALM 0 0 1010.7 - 0.2 - Partly cloudy 10 - - - -
29/03:38am 14.9 CALM 0 0 1011.0 - 0.2 - Partly cloudy 8 - - - -
29/03:30am 14.9 CALM 0 0 1011.0 - 0.2 - - 6 - - - -
29/03:10am 14.8 CALM 0 0 1011.2 - 0.2 - - 5 - - - -
29/03:00am 14.7 CALM 0 0 1011.4 - 0.2 - - 6 - - - -
29/02:33am 15.3 CALM 0 0 1011.6 - 0.2 - - 8 - - - -
29/02:30am 14.9 CALM 0 0 1011.7 - 0.2 - - 8 - - - -
29/02:04am 15.5 SW 1 3 1012.0 - 0.2 - - 5 - - - -
29/02:00am 16.0 SW 1 3 1012.1 - 0.2 - - 9 - - - -
29/01:30am 15.9 CALM 0 0 1012.4 - 0.2 - - 9 - - - -
29/01:00am 16.0 CALM 0 0 1012.7 - 0.2 - - 10 - - - -
29/12:30am 17.1 CALM 0 0 1013.0 - 0.2 - Partly cloudy 10 - - - -
29/12:00am 18.2 CALM 0 0 1013.3 - 0.2 - Partly cloudy 10 - - - -
 
Date/Time
EDT
Temp
°C
Wind Pressure Rain since
9am
mm
Weather Cloud Vis
km
Sea
Height
m
Swell
Dir  Spd
kts
Gust
kts
hPa Trend Height
m
Period
s
Dir
28/11:30pm 18.6 W 2 4 1013.5 - 0.2 - Cloudy 10 - - - -
28/11:00pm 18.5 WNW 3 5 1013.6 - 0.2 - Partly cloudy 10 - - - -
28/10:30pm 18.6 WNW 3 5 1013.7 - 0.2 - Partly cloudy 10 - - - -
28/10:00pm 19.4 CALM 0 1 1013.9 - 0.2 - Partly cloudy 10 - - - -
28/09:30pm 19.8 N 3 5 1013.9 - 0.2 - Partly cloudy 10 - - - -
28/09:00pm 19.6 NNW 3 4 1013.6 - 0.2 - Cloudy 10 - - - -
28/08:30pm 19.6 NW 4 4 1013.4 - 0.2 - Partly cloudy 10 - - - -
28/08:00pm 19.6 NW 3 5 1013.4 - 0.2 - Cloudy 10 - - - -
28/07:30pm 19.9 CALM 0 0 1013.3 - 0.2 - Cloudy 10 - - - -
28/07:00pm 20.9 ENE 3 5 1013.3 - 0.2 - Cloudy 10 - - - -
28/06:30pm 20.9 E 4 5 1013.0 - 0.2 - Partly cloudy 10 - - - -
28/06:00pm 21.0 E 5 6 1012.9 - 0.2 - Mostly cloudy 10 - - - -
28/05:30pm 21.2 E 5 7 1012.8 - 0.2 - Partly cloudy 10 - - - -
28/05:00pm 21.4 E 6 7 1012.6 - 0.2 - Cloudy 10 - - - -
28/04:30pm 21.6 E 6 7 1012.6 - 0.2 - Cloudy 10 - - - -
28/04:00pm 21.4 E 6 8 1012.8 - 0.2 - Partly cloudy 10 - - - -
28/03:30pm 22.0 ESE 7 9 1012.8 - 0.2 - Partly cloudy 10 - - - -
28/03:00pm 22.4 E 7 8 1013.1 - 0.2 - Partly cloudy 10 - - - -
28/02:30pm 22.2 ESE 7 9 1013.3 - 0.2 - Partly cloudy 10 - - - -
28/02:00pm 22.2 E 6 8 1013.5 - 0.2 - - 10 - - - -
28/01:30pm 21.7 E 6 7 1013.9 - 0.2 - Partly cloudy 10 - - - -
28/01:00pm 22.1 ENE 5 7 1014.2 - 0.0 - Partly cloudy 10 - - - -
28/12:30pm 21.5 E 5 6 1014.7 - 0.0 - Partly cloudy 10 - - - -
28/12:00pm 21.7 ENE 5 8 1014.8 - 0.0 - Partly cloudy 10 - - - -
28/11:30am 21.6 ESE 3 5 1014.9 - 0.0 - Partly cloudy 10 - - - -
28/11:00am 21.2 SW 3 6 1015.1 - 0.0 - Partly cloudy 10 - - - -
28/10:30am 20.1 WNW 3 4 1015.2 - 0.0 - Partly cloudy 10 - - - -
28/10:00am 19.5 WNW 3 5 1015.0 - 0.0 - Partly cloudy 10 - - - -
28/09:30am 18.7 W 5 6 1015.0 - 0.0 - Partly cloudy 10 - - - -
28/09:00am 18.1 WNW 4 5 1014.6 - 4.0 - Cloudy 10 - - - -
28/08:30am 17.6 CALM 0 4 1014.5 - 4.0 - Partly cloudy 10 - - - -
28/08:00am 17.3 W 3 5 1014.4 - 4.0 - Cloudy 10 - - - -
28/07:30am 17.1 CALM 0 3 1014.0 - 4.0 - Cloudy 10 - - - -
28/07:00am 17.0 WSW 4 6 1013.8 - 4.0 - Cloudy 10 - - - -
28/06:30am 16.9 W 4 8 1013.5 - 4.0 - Cloudy 10 - - - -
28/06:00am 16.8 WNW 3 5 1013.4 - 4.0 - Cloudy 10 - - - -
28/05:30am 16.9 WSW 5 6 1013.3 - 4.0 - Cloudy 10 - - - -
28/05:00am 16.7 WSW 4 5 1013.3 - 4.0 - Cloudy 10 - - - -
28/04:30am 16.7 W 4 5 1013.2 - 4.0 - Cloudy 10 - - - -
28/04:00am 16.9 S 7 11 1013.5 - 4.0 - Partly cloudy 7 - - - -
28/03:30am 17.8 S 8 11 1013.2 - 4.0 - Cloudy 10 - - - -
28/03:00am 18.1 SSW 6 10 1013.3 - 4.0 - Cloudy 10 - - - -
28/02:30am 18.1 WSW 4 6 1013.1 - 4.0 - Partly cloudy 10 - - - -
28/02:00am 18.4 SSW 5 7 1013.0 - 4.0 - Cloudy 10 - - - -
28/01:30am 18.4 SW 4 6 1012.9 - 4.0 - Partly cloudy 10 - - - -
28/01:00am 18.5 SSW 4 7 1012.9 - 4.0 - Cloudy 8 - - - -
28/12:32am 18.5 W 3 7 1012.4 - 4.0 - Partly cloudy 10 - - - -
28/12:30am 18.5 W 2 5 1012.4 - 4.0 - Partly cloudy 10 - - - -
28/12:00am 18.5 NW 4 6 1012.4 - 4.0 - Cloudy 10 - - - -
 
Date/Time
EDT
Temp
°C
Wind Pressure Rain since
9am
mm
Weather Cloud Vis
km
Sea
Height
m
Swell
Dir  Spd
kts
Gust
kts
hPa Trend Height
m
Period
s
Dir
27/11:55pm 18.6 WNW 3 5 1012.1 - 4.0 - Partly cloudy 10 - - - -
27/11:30pm 18.6 SW 6 9 1012.1 - 4.0 - Partly cloudy 10 - - - -
27/11:29pm 18.6 SW 6 9 1012.1 - 4.0 - Partly cloudy 10 - - - -
27/11:00pm 18.5 SW 6 8 1012.5 - 4.0 - Partly cloudy 9 - - - -
27/10:52pm 18.4 WSW 4 6 1012.2 - 4.0 - Partly cloudy 8 - - - -
27/10:30pm 18.7 SSW 10 19 1011.9 - 4.0 - - 9 - - - -
27/10:01pm 19.3 S 10 19 1012.1 - 4.0 - Partly cloudy 8 - - - -
27/10:00pm 19.3 S 9 19 1012.2 - 4.0 - Partly cloudy 7 - - - -
27/09:46pm 19.5 SSW 7 11 1012.4 - 3.8 - Partly cloudy 5 - - - -
27/09:42pm 19.5 SSW 7 11 1012.4 - 3.6 - Partly cloudy 7 - - - -
27/09:35pm 19.2 S 9 15 1012.1 - 3.4 - Partly cloudy 9 - - - -
27/09:30pm 19.3 S 12 16 1011.9 - 3.4 - Partly cloudy 8 - - - -
27/09:22pm 19.4 SSE 14 18 1011.5 - 3.2 - Partly cloudy 5 - - - -
27/09:02pm 20.5 S 20 33 1011.6 - 0.8 - Partly cloudy 5 - - - -
27/09:00pm 20.7 S 22 33 1011.3 - 0.4 Rain Cloudy 7 - - - -
27/08:50pm 22.1 S 22 37 1010.3 - 0.0 - Partly cloudy 10 - - - -
27/08:49pm 22.3 S 21 37 1010.2 - 0.0 - Partly cloudy 10 - - - -
27/08:43pm 23.7 SSW 15 25 1010.0 - 0.0 - Partly cloudy 10 - - - -
27/08:37pm 23.3 SSE 10 22 1009.8 - 0.0 - Partly cloudy 10 - - - -
27/08:30pm 22.9 ESE 5 7 1008.9 - 0.0 - Partly cloudy 8 - - - -
27/08:06pm 22.8 NE 3 4 1007.8 - 0.0 - - 6 - - - -
27/08:00pm 22.8 NE 3 6 1007.0 - 0.0 - - 6 - - - -
27/07:42pm 22.8 NNE 6 8 1005.8 - 0.0 - - 5 - - - -
27/07:30pm 23.0 NNE 8 11 1005.5 - 0.0 - - 6 - - - -
27/07:00pm 23.3 NNE 8 10 1005.4 - 0.0 - - 9 - - - -
27/06:30pm 23.8 NNE 13 16 1005.0 - 0.0 - - 10 - - - -
27/06:00pm 24.3 NNE 16 19 1004.9 - 0.0 - - 10 - - - -
27/05:30pm 25.2 NNE 15 18 1005.3 - 0.0 - - 10 - - - -
27/05:00pm 25.7 NNE 18 22 1005.9 - 0.0 - - 10 - - - -
27/04:30pm 26.1 NNE 18 23 1006.1 - 0.0 - - 10 - - - -
27/04:00pm 26.3 NNE 16 21 1006.5 - 0.0 - - 10 - - - -
27/03:30pm 26.6 NNE 17 20 1007.1 - 0.0 - - 10 - - - -
27/03:00pm 24.8 NE 15 19 1007.5 - 0.0 - - 10 - - - -
27/02:30pm 25.8 NE 15 19 1007.8 - 0.0 - - 10 - - - -
27/02:00pm 26.6 NE 14 19 1008.5 - 0.0 - - 10 - - - -
27/01:30pm 25.5 NE 16 21 1009.0 - 0.0 - - 10 - - - -
27/01:00pm 25.4 NE 15 20 1009.9 - 0.0 - - 10 - - - -
27/12:30pm 25.3 NE 14 18 1010.6 - 0.0 - - 10 - - - -
27/12:00pm 25.6 NE 12 16 1011.2 - 0.0 - - 10 - - - -
27/11:30am 25.7 NE 12 15 1011.7 - 0.0 - - 10 - - - -
27/11:00am 26.1 NNE 7 9 1012.3 - 0.0 - - 10 - - - -
27/10:30am 24.3 N 7 9 1013.0 - 0.0 - - 10 - - - -
27/10:00am 23.1 N 7 11 1013.4 - 0.0 - - 10 - - - -
27/09:30am 22.0 N 6 9 1013.9 - 0.0 - - 10 - - - -
27/09:00am 19.9 NNW 5 7 1014.0 - 0.0 - - 10 - - - -
27/08:30am 19.0 N 5 7 1013.9 - 0.0 - - 10 - - - -
27/08:00am 16.5 NW 4 6 1014.1 - 0.0 - - 10 - - - -
27/07:37am 15.7 N 6 7 1013.7 - 0.0 - - 9 - - - -
27/07:30am 15.3 N 6 7 1013.7 - 0.0 - - 8 - - - -
27/07:00am 14.9 CALM 0 0 1014.0 - 0.0 - - 0.9 - - - -
27/06:30am 14.7 CALM 0 0 1013.7 - 0.0 - - 0.3 - - - -
27/06:00am 15.0 CALM 0 0 1013.5 - 0.0 - - 0.5 - - - -
27/05:30am 14.7 CALM 0 0 1013.5 - 0.0 - - 2 - - - -
27/05:00am 14.6 CALM 0 0 1013.6 - 0.0 - - 0.6 - - - -
27/04:30am 15.5 CALM 0 0 1013.7 - 0.0 - - 3 - - - -
27/04:00am 15.6 CALM 0 0 1014.1 - 0.0 - - 2 - - - -
27/03:30am 15.7 CALM 0 0 1014.5 - 0.0 - - 0.5 - - - -
27/03:00am 15.5 CALM 0 0 1014.5 - 0.0 - - 2 - - - -
27/02:30am 15.6 CALM 0 0 1014.7 - 0.0 - - 0.4 - - - -

Other Formats:

Comma delimited format used in spreadsheet applications
http://www.bom.gov.au/fwo/IDN60701/IDN60701.95937.axf

JavaScript Object Notation format (JSON) in row-major order
http://www.bom.gov.au/fwo/IDN60701/IDN60701.95937.json